Archival Weather

Yakutsk

Yakutsk, Russia (UEEE)

Report from: Tuesday, June 6, 2023 11:00 AM JST
Current time: Tuesday, July 16, 2024 6:55 PM JST

Current weather – Weather history – Daily summaries
Weather forecast

Temperature17.0°C (62.6°F)
Dew point3.0°C (37.4°F)
Winds 5.8 kts (3 m/s, 6.7 mph) Northwest (310°)
Clouds Sky clear
Altimeter29.53 in.Hg (1000 mB)
Precip. events QF 1:21 PM
Relative humidity39 %
Density altitude799 ft. (244 m)
Remarks Ceiling and visibility OK
No significant changes expected in the next two hours
Flight conditions Visual Meteorological Conditions
Raw dataUEEE 060200Z 31003MPS CAVOK 17/03 Q1000 R05/09//60 NOSIG RMK QFE741
An error has occurred. This application may no longer respond until reloaded. Reload 🗙